createdAt,value
2023-05-23T00:00:22.281Z,11.68
2023-05-23T00:03:11.267Z,11.61
2023-05-23T00:05:39.788Z,11.59
2023-05-23T00:08:08.327Z,11.62
2023-05-23T00:10:37.806Z,11.61
2023-05-23T00:13:09.453Z,11.59
2023-05-23T00:15:38.347Z,11.60
2023-05-23T00:18:09.013Z,11.57
2023-05-23T00:20:37.972Z,11.56
2023-05-23T00:23:06.559Z,11.52
2023-05-23T00:25:35.980Z,11.49
2023-05-23T00:28:06.542Z,11.38
2023-05-23T00:30:35.403Z,11.35
2023-05-23T00:33:04.499Z,11.35
2023-05-23T00:35:33.191Z,11.35
2023-05-23T00:38:02.313Z,11.34
2023-05-23T00:40:30.583Z,11.31
2023-05-23T00:42:58.988Z,11.30
2023-05-23T00:45:28.603Z,11.31
2023-05-23T00:47:59.254Z,11.31
2023-05-23T00:50:29.540Z,11.35
2023-05-23T00:53:00.233Z,11.29
2023-05-23T00:55:29.144Z,11.25
2023-05-23T00:57:58.177Z,11.21
2023-05-23T01:00:27.231Z,11.16
2023-05-23T01:02:56.983Z,11.15
2023-05-23T01:05:25.519Z,11.16
2023-05-23T01:07:55.783Z,11.14
2023-05-23T01:10:26.989Z,11.12
2023-05-23T01:13:11.812Z,11.09
2023-05-23T01:15:48.469Z,11.02
2023-05-23T01:18:24.361Z,11.02
2023-05-23T01:20:56.502Z,11.00
2023-05-23T01:23:47.982Z,10.92
2023-05-23T01:26:30.655Z,10.91
2023-05-23T01:29:10.267Z,10.89
2023-05-23T01:31:39.002Z,10.88
2023-05-23T01:34:09.157Z,10.88
2023-05-23T01:36:42.132Z,10.89
2023-05-23T01:39:13.584Z,10.91
2023-05-23T01:41:41.917Z,10.89
2023-05-23T01:44:11.817Z,10.86
2023-05-23T01:46:43.612Z,10.81
2023-05-23T01:49:14.842Z,10.62
2023-05-23T01:51:44.104Z,10.76
2023-05-23T01:54:13.570Z,10.73
2023-05-23T01:56:43.115Z,10.79
2023-05-23T01:59:13.421Z,10.81
2023-05-23T02:01:42.637Z,10.79
2023-05-23T02:04:10.834Z,10.76
2023-05-23T02:06:38.954Z,10.71
2023-05-23T02:09:07.328Z,10.72
2023-05-23T02:11:35.484Z,10.64
2023-05-23T02:14:03.998Z,10.64
2023-05-23T02:16:36.716Z,10.64
2023-05-23T02:19:05.547Z,10.54
2023-05-23T02:21:35.562Z,10.72
2023-05-23T02:24:04.325Z,10.70
2023-05-23T02:26:32.804Z,10.64
2023-05-23T02:29:01.213Z,10.55
2023-05-23T02:31:29.520Z,10.46
2023-05-23T02:33:59.337Z,10.61
2023-05-23T02:36:27.234Z,10.57
2023-05-23T02:38:55.947Z,10.53
2023-05-23T02:41:24.042Z,10.53
2023-05-23T02:43:52.469Z,10.62
2023-05-23T02:46:20.591Z,10.70
2023-05-23T02:48:48.987Z,10.77
2023-05-23T02:51:18.647Z,10.74
2023-05-23T02:53:47.052Z,10.88
2023-05-23T02:56:16.171Z,10.98
2023-05-23T02:58:44.592Z,10.94
2023-05-23T03:01:12.765Z,11.08
2023-05-23T03:03:41.782Z,11.12
2023-05-23T03:06:14.498Z,11.30
2023-05-23T03:08:44.896Z,11.14
2023-05-23T03:11:13.071Z,11.53
2023-05-23T03:13:41.619Z,11.62
2023-05-23T03:16:09.925Z,11.72
2023-05-23T03:18:38.374Z,11.81
2023-05-23T03:21:06.525Z,11.99
2023-05-23T03:23:37.108Z,12.29
2023-05-23T03:26:07.719Z,12.95
2023-05-23T03:28:36.488Z,13.74
2023-05-23T03:31:04.643Z,14.45
2023-05-23T03:33:33.144Z,14.73
2023-05-23T03:36:01.306Z,15.04
2023-05-23T03:38:29.772Z,15.32
2023-05-23T03:40:57.936Z,15.76
2023-05-23T03:43:27.859Z,16.50
2023-05-23T03:45:56.050Z,17.21
2023-05-23T03:48:24.632Z,17.16
2023-05-23T03:50:52.822Z,17.36
2023-05-23T03:53:21.313Z,17.53
2023-05-23T03:55:49.479Z,17.46
2023-05-23T03:58:17.919Z,16.83
2023-05-23T04:00:50.169Z,17.78
2023-05-23T04:03:18.800Z,18.35
2023-05-23T04:05:47.146Z,19.00
2023-05-23T04:08:15.860Z,19.49
2023-05-23T04:10:44.032Z,19.86
2023-05-23T04:13:12.566Z,19.94
2023-05-23T04:15:41.361Z,19.71
2023-05-23T04:18:11.319Z,19.70
2023-05-23T04:20:39.231Z,19.17
2023-05-23T04:23:07.708Z,18.78
2023-05-23T04:25:35.827Z,18.59
2023-05-23T04:28:05.388Z,18.43
2023-05-23T04:30:33.420Z,18.58
2023-05-23T04:33:01.930Z,18.21
2023-05-23T04:35:39.107Z,18.59
2023-05-23T04:38:07.792Z,18.95
2023-05-23T04:40:35.882Z,18.88
2023-05-23T04:43:04.322Z,18.25
2023-05-23T04:45:32.412Z,17.65
2023-05-23T04:48:01.028Z,17.52
2023-05-23T04:50:31.848Z,17.61
2023-05-23T04:53:01.633Z,18.03
2023-05-23T04:55:29.879Z,18.13
2023-05-23T04:57:58.417Z,18.38
2023-05-23T05:00:26.854Z,18.23
2023-05-23T05:02:55.393Z,18.28
2023-05-23T05:05:23.579Z,18.49
2023-05-23T05:07:52.013Z,18.75
2023-05-23T05:10:22.115Z,18.74
2023-05-23T05:12:50.617Z,18.86
2023-05-23T05:15:19.521Z,18.82
2023-05-23T05:17:49.705Z,19.07
2023-05-23T05:20:18.226Z,19.14
2023-05-23T05:22:47.226Z,19.38
2023-05-23T05:25:15.413Z,19.44
2023-05-23T05:27:45.450Z,19.25
2023-05-23T05:30:18.038Z,19.34
2023-05-23T05:32:47.869Z,19.56
2023-05-23T05:35:16.111Z,19.80
2023-05-23T05:37:44.540Z,20.10
2023-05-23T05:40:15.732Z,20.19
2023-05-23T05:42:45.836Z,20.24
2023-05-23T05:45:14.032Z,20.33
2023-05-23T05:47:42.520Z,20.39
2023-05-23T05:50:11.413Z,20.48
2023-05-23T05:52:40.205Z,20.69
2023-05-23T05:55:11.470Z,21.01
2023-05-23T05:57:40.083Z,21.12
2023-05-23T06:00:13.671Z,21.44
2023-05-23T06:02:43.037Z,21.62
2023-05-23T06:05:13.113Z,21.90
2023-05-23T06:07:41.935Z,22.12
2023-05-23T06:10:12.832Z,21.96
2023-05-23T06:12:41.613Z,21.97
2023-05-23T06:15:13.395Z,21.99
2023-05-23T06:17:42.062Z,22.05
2023-05-23T06:20:10.947Z,22.17
2023-05-23T06:22:39.335Z,22.40
2023-05-23T06:25:08.886Z,22.55
2023-05-23T06:27:38.169Z,22.56
2023-05-23T06:30:07.524Z,22.47
2023-05-23T06:32:40.386Z,22.55
2023-05-23T06:35:09.144Z,22.78
2023-05-23T06:37:37.550Z,22.75
2023-05-23T06:40:06.789Z,22.89
2023-05-23T06:42:35.166Z,23.25
2023-05-23T06:45:03.475Z,23.29
2023-05-23T06:47:31.961Z,23.20
2023-05-23T06:50:01.474Z,23.33
2023-05-23T06:52:29.929Z,23.69
2023-05-23T06:54:58.111Z,23.73
2023-05-23T06:57:26.508Z,23.85
2023-05-23T06:59:54.638Z,23.85
2023-05-23T07:02:23.053Z,24.06
2023-05-23T07:04:54.308Z,23.94
2023-05-23T07:07:24.121Z,24.25
2023-05-23T07:09:52.745Z,24.33
2023-05-23T07:12:21.177Z,24.38
2023-05-23T07:14:49.384Z,24.41
2023-05-23T07:17:17.812Z,24.42
2023-05-23T07:19:46.728Z,24.45
2023-05-23T07:22:14.913Z,24.29
2023-05-23T07:24:44.451Z,24.17
2023-05-23T07:27:12.837Z,24.11
2023-05-23T07:29:41.205Z,24.25
2023-05-23T07:32:09.609Z,24.39
2023-05-23T07:34:37.745Z,24.49
2023-05-23T07:37:08.952Z,24.50
2023-05-23T07:39:37.079Z,24.36
2023-05-23T07:42:07.100Z,24.45
2023-05-23T07:44:35.259Z,24.59
2023-05-23T07:47:03.743Z,24.74
2023-05-23T07:49:31.908Z,24.80
2023-05-23T07:52:00.301Z,25.03
2023-05-23T07:54:28.453Z,25.04
2023-05-23T07:56:56.972Z,25.04
2023-05-23T07:59:27.012Z,24.95
2023-05-23T08:01:55.511Z,24.95
2023-05-23T08:04:23.740Z,25.30
2023-05-23T08:07:00.874Z,25.51
2023-05-23T08:09:33.503Z,25.71
2023-05-23T08:12:01.954Z,25.74
2023-05-23T08:14:38.724Z,26.00
2023-05-23T08:17:18.124Z,25.83
2023-05-23T08:19:46.352Z,25.91
2023-05-23T08:22:14.742Z,25.84
2023-05-23T08:24:42.901Z,25.93
2023-05-23T08:27:11.364Z,25.95
2023-05-23T08:29:44.342Z,25.86
2023-05-23T08:32:12.887Z,26.20
2023-05-23T08:34:42.225Z,26.29
2023-05-23T08:37:11.202Z,26.40
2023-05-23T08:39:39.491Z,26.50
2023-05-23T08:42:08.319Z,26.53
2023-05-23T08:44:36.481Z,26.54
2023-05-23T08:47:06.732Z,26.51
2023-05-23T08:49:36.040Z,26.43
2023-05-23T08:52:04.833Z,26.24
2023-05-23T08:54:34.127Z,26.58
2023-05-23T08:57:03.713Z,26.25
2023-05-23T08:59:35.062Z,26.39
2023-05-23T09:02:04.793Z,26.44
2023-05-23T09:04:34.336Z,26.44
2023-05-23T09:07:03.941Z,26.45
2023-05-23T09:09:33.977Z,26.47
2023-05-23T09:12:03.429Z,26.33
2023-05-23T09:14:32.002Z,26.23
2023-05-23T09:17:04.925Z,26.20
2023-05-23T09:19:34.700Z,25.97
2023-05-23T09:22:03.884Z,26.06
2023-05-23T09:24:41.672Z,26.12
2023-05-23T09:27:10.108Z,25.93
2023-05-23T09:29:39.734Z,25.71
2023-05-23T09:32:14.877Z,25.97
2023-05-23T09:34:57.386Z,26.27
2023-05-23T09:37:31.303Z,26.10
2023-05-23T09:40:00.836Z,26.02
2023-05-23T09:42:33.970Z,26.08
2023-05-23T09:45:04.443Z,26.48
2023-05-23T09:47:33.519Z,26.41
2023-05-23T09:50:03.280Z,26.39
2023-05-23T09:52:37.459Z,26.32
2023-05-23T09:55:06.730Z,26.35
2023-05-23T09:57:37.210Z,26.36
2023-05-23T10:00:11.256Z,26.48
2023-05-23T10:02:56.823Z,26.49
2023-05-23T10:05:34.617Z,26.60
2023-05-23T10:08:10.759Z,26.76
2023-05-23T10:11:14.599Z,26.86
2023-05-23T10:13:45.332Z,26.93
2023-05-23T10:16:22.491Z,26.87
2023-05-23T10:18:57.698Z,26.94
2023-05-23T10:21:34.353Z,27.04
2023-05-23T10:24:04.514Z,26.95
2023-05-23T10:26:32.940Z,26.91
2023-05-23T10:29:02.478Z,27.15
2023-05-23T10:31:31.339Z,27.19
2023-05-23T10:34:04.305Z,27.04
2023-05-23T10:36:56.441Z,27.14
2023-05-23T10:39:39.723Z,27.12
2023-05-23T10:42:14.566Z,26.68
2023-05-23T10:44:46.202Z,26.65
2023-05-23T10:47:27.266Z,26.97
2023-05-23T10:49:56.968Z,27.16
2023-05-23T10:52:41.581Z,27.25
2023-05-23T10:55:16.055Z,27.19
2023-05-23T10:57:45.838Z,27.09
2023-05-23T11:00:18.415Z,27.37
2023-05-23T11:03:11.627Z,26.96
2023-05-23T11:05:56.174Z,27.02
2023-05-23T11:08:43.155Z,27.29
2023-05-23T11:11:19.721Z,27.28
2023-05-23T11:14:00.198Z,27.29
2023-05-23T11:16:31.125Z,27.13
2023-05-23T11:19:39.494Z,27.95
2023-05-23T11:22:11.216Z,28.10
2023-05-23T11:24:52.602Z,28.40
2023-05-23T11:27:36.778Z,28.42
2023-05-23T11:30:14.654Z,28.33
2023-05-23T11:32:44.497Z,27.74
2023-05-23T11:35:17.415Z,27.89
2023-05-23T11:37:46.200Z,27.84
2023-05-23T11:40:29.500Z,27.64
2023-05-23T11:42:58.521Z,27.73
2023-05-23T11:45:27.731Z,27.87
2023-05-23T11:47:56.383Z,27.78
2023-05-23T11:50:25.545Z,27.70
2023-05-23T11:52:56.113Z,27.28
2023-05-23T11:55:25.067Z,27.56
2023-05-23T11:57:57.729Z,27.73
2023-05-23T12:00:26.021Z,27.63
2023-05-23T12:02:54.620Z,27.50
2023-05-23T12:05:22.818Z,26.91
2023-05-23T12:07:51.278Z,26.75
2023-05-23T12:10:21.797Z,26.80
2023-05-23T12:12:54.167Z,27.27
2023-05-23T12:15:27.277Z,27.05
2023-05-23T12:17:56.900Z,26.79
2023-05-23T12:20:28.720Z,27.18
2023-05-23T12:22:58.544Z,27.32
2023-05-23T12:25:26.849Z,27.08
2023-05-23T12:27:58.167Z,27.45
2023-05-23T12:30:28.146Z,27.34
2023-05-23T12:32:56.813Z,27.43
2023-05-23T12:35:27.119Z,27.46
2023-05-23T12:37:58.831Z,27.62
2023-05-23T12:40:28.384Z,28.15
2023-05-23T12:42:58.367Z,28.19
2023-05-23T12:45:33.744Z,28.15
2023-05-23T12:48:03.291Z,28.02
2023-05-23T12:50:31.865Z,27.64
2023-05-23T12:53:00.410Z,27.97
2023-05-23T12:55:28.491Z,27.80
2023-05-23T12:57:58.276Z,28.01
2023-05-23T13:00:26.514Z,28.01
2023-05-23T13:02:55.081Z,27.97
2023-05-23T13:05:23.348Z,27.73
2023-05-23T13:07:51.817Z,27.05
2023-05-23T13:10:20.248Z,27.38
2023-05-23T13:12:48.652Z,27.59
2023-05-23T13:15:18.344Z,27.81
2023-05-23T13:17:50.214Z,28.02
2023-05-23T13:20:18.754Z,28.69
2023-05-23T13:22:47.186Z,28.82
2023-05-23T13:25:15.600Z,28.81
2023-05-23T13:27:43.979Z,28.58
2023-05-23T13:30:12.740Z,29.03
2023-05-23T13:32:42.426Z,29.05
2023-05-23T13:35:11.222Z,29.06
2023-05-23T13:37:39.884Z,29.04
2023-05-23T13:40:09.075Z,28.97
2023-05-23T13:42:37.614Z,28.65
2023-05-23T13:45:06.891Z,28.81
2023-05-23T13:47:36.285Z,28.61
2023-05-23T13:50:07.574Z,28.62
2023-05-23T13:52:36.011Z,28.60
2023-05-23T13:55:07.700Z,28.68
2023-05-23T13:57:39.302Z,27.93
2023-05-23T14:00:09.194Z,28.01
2023-05-23T14:02:37.712Z,27.41
2023-05-23T14:05:08.768Z,27.45
2023-05-23T14:07:38.428Z,27.23
2023-05-23T14:10:09.326Z,27.36
2023-05-23T14:12:37.876Z,27.72
2023-05-23T14:15:06.533Z,27.67
2023-05-23T14:17:34.787Z,27.60
2023-05-23T14:20:03.501Z,27.81
2023-05-23T14:22:33.329Z,27.78
2023-05-23T14:25:01.603Z,27.43
2023-05-23T14:27:30.192Z,27.44
2023-05-23T14:29:58.314Z,27.36
2023-05-23T14:32:28.172Z,27.39
2023-05-23T14:34:56.441Z,27.80
2023-05-23T14:37:24.910Z,28.48
2023-05-23T14:39:54.463Z,28.68
2023-05-23T14:42:22.837Z,29.10
2023-05-23T14:44:50.977Z,28.79
2023-05-23T14:47:19.565Z,28.93
2023-05-23T14:49:49.824Z,29.04
2023-05-23T14:52:18.503Z,29.05
2023-05-23T14:54:46.717Z,28.92
2023-05-23T14:57:16.666Z,28.55
2023-05-23T14:59:44.804Z,28.27
2023-05-23T15:02:13.384Z,28.11
2023-05-23T15:04:41.988Z,27.71
2023-05-23T15:07:10.401Z,27.31
2023-05-23T15:09:38.542Z,27.53
2023-05-23T15:12:09.742Z,27.61
2023-05-23T15:14:39.282Z,27.27
2023-05-23T15:17:08.808Z,27.38
2023-05-23T15:19:37.195Z,27.14
2023-05-23T15:22:06.719Z,27.52
2023-05-23T15:24:35.185Z,27.71
2023-05-23T15:27:18.830Z,27.54
2023-05-23T15:29:49.681Z,27.31
2023-05-23T15:32:18.359Z,27.22
2023-05-23T15:34:46.658Z,27.15
2023-05-23T15:37:15.120Z,27.32
2023-05-23T15:39:43.312Z,27.47
2023-05-23T15:42:11.820Z,27.84
2023-05-23T15:44:40.095Z,27.79
2023-05-23T15:47:10.199Z,28.09
2023-05-23T15:49:38.483Z,29.57
2023-05-23T15:52:06.954Z,30.00
2023-05-23T15:54:35.154Z,29.92
2023-05-23T15:57:03.623Z,29.53
2023-05-23T15:59:32.515Z,29.12
2023-05-23T16:02:05.408Z,29.06
2023-05-23T16:04:36.179Z,29.03
2023-05-23T16:07:05.154Z,28.48
2023-05-23T16:09:33.426Z,27.29
2023-05-23T16:12:01.983Z,27.58
2023-05-23T16:14:31.511Z,27.60
2023-05-23T16:17:02.836Z,26.63
2023-05-23T16:19:31.041Z,27.03
2023-05-23T16:22:01.487Z,27.67
2023-05-23T16:24:29.688Z,27.87
2023-05-23T16:26:58.320Z,27.77
2023-05-23T16:29:26.539Z,30.22
2023-05-23T16:31:55.236Z,31.43
2023-05-23T16:34:23.523Z,31.70
2023-05-23T16:36:52.599Z,31.66
2023-05-23T16:39:22.260Z,32.56
2023-05-23T16:41:50.700Z,31.63
2023-05-23T16:44:19.006Z,30.23
2023-05-23T16:46:48.028Z,28.82
2023-05-23T16:49:16.657Z,29.19
2023-05-23T16:51:47.095Z,27.29
2023-05-23T16:54:19.817Z,26.73
2023-05-23T16:56:50.343Z,27.63
2023-05-23T16:59:18.482Z,27.96
2023-05-23T17:01:46.965Z,28.37
2023-05-23T17:04:15.378Z,28.17
2023-05-23T17:06:44.659Z,28.06
2023-05-23T17:09:13.509Z,27.63
2023-05-23T17:11:42.384Z,28.49
2023-05-23T17:14:12.835Z,28.46
2023-05-23T17:16:41.718Z,27.37
2023-05-23T17:19:13.436Z,26.96
2023-05-23T17:21:42.592Z,25.87
2023-05-23T17:24:11.472Z,25.40
2023-05-23T17:26:40.216Z,24.87
2023-05-23T17:29:08.489Z,24.43
2023-05-23T17:31:38.820Z,24.28
2023-05-23T17:34:07.830Z,23.79
2023-05-23T17:36:37.061Z,24.00
2023-05-23T17:39:05.697Z,23.84
2023-05-23T17:41:34.402Z,23.59
2023-05-23T17:44:03.729Z,23.62
2023-05-23T17:46:32.727Z,23.83
2023-05-23T17:49:02.577Z,23.73
2023-05-23T17:51:32.316Z,23.60
2023-05-23T17:54:00.834Z,23.61
2023-05-23T17:56:29.708Z,23.24
2023-05-23T17:58:58.478Z,23.20
2023-05-23T18:01:27.946Z,23.15
2023-05-23T18:03:56.820Z,22.97
2023-05-23T18:06:27.374Z,22.72
2023-05-23T18:08:55.854Z,22.74
2023-05-23T18:11:27.542Z,22.65
2023-05-23T18:13:56.029Z,22.61
2023-05-23T18:16:27.516Z,22.42
2023-05-23T18:18:57.344Z,22.34
2023-05-23T18:21:27.643Z,22.27
2023-05-23T18:23:56.853Z,22.06
2023-05-23T18:26:26.035Z,21.82
2023-05-23T18:28:54.485Z,21.90
2023-05-23T18:31:22.947Z,21.88
2023-05-23T18:33:51.383Z,21.73
2023-05-23T18:36:20.290Z,21.62
2023-05-23T18:38:50.372Z,21.57
2023-05-23T18:41:19.529Z,21.57
2023-05-23T18:43:48.034Z,21.56
2023-05-23T18:46:17.274Z,21.51
2023-05-23T18:48:45.438Z,21.38
2023-05-23T18:51:14.296Z,21.31
2023-05-23T18:53:43.264Z,21.22
2023-05-23T18:56:14.158Z,21.15
2023-05-23T18:58:43.160Z,21.08
2023-05-23T19:01:12.763Z,21.03
2023-05-23T19:03:41.306Z,21.01
2023-05-23T19:06:10.218Z,20.93
2023-05-23T19:08:41.514Z,20.86
2023-05-23T19:11:12.158Z,20.77
2023-05-23T19:13:42.288Z,20.76
2023-05-23T19:16:11.023Z,20.71
2023-05-23T19:18:40.578Z,20.58
2023-05-23T19:21:08.921Z,20.49
2023-05-23T19:23:37.818Z,20.50
2023-05-23T19:26:06.837Z,20.55
2023-05-23T19:28:35.730Z,20.56
2023-05-23T19:31:07.675Z,20.52
2023-05-23T19:33:36.983Z,20.43
2023-05-23T19:36:06.863Z,20.40
2023-05-23T19:38:35.420Z,20.35
2023-05-23T19:41:03.891Z,20.25
2023-05-23T19:43:32.448Z,20.21
2023-05-23T19:46:01.034Z,20.06
2023-05-23T19:48:30.666Z,19.98
2023-05-23T19:50:59.389Z,20.03
2023-05-23T19:53:27.755Z,20.03
2023-05-23T19:55:56.523Z,20.01
2023-05-23T19:58:24.766Z,20.00
2023-05-23T20:00:53.478Z,19.97
2023-05-23T20:03:22.890Z,19.93
2023-05-23T20:05:53.255Z,19.83
2023-05-23T20:08:22.094Z,19.78
2023-05-23T20:10:50.541Z,19.76
2023-05-23T20:13:19.054Z,19.76
2023-05-23T20:15:49.034Z,19.75
2023-05-23T20:18:17.430Z,19.69
2023-05-23T20:20:46.427Z,19.64
2023-05-23T20:23:16.280Z,19.60
2023-05-23T20:25:44.892Z,19.52
2023-05-23T20:28:13.077Z,19.53
2023-05-23T20:30:42.304Z,19.48
2023-05-23T20:33:11.267Z,19.49
2023-05-23T20:35:41.785Z,19.48
2023-05-23T20:38:10.150Z,19.45
2023-05-23T20:40:40.234Z,19.52
2023-05-23T20:43:09.556Z,19.54
2023-05-23T20:45:44.068Z,19.48
2023-05-23T20:48:12.725Z,19.48
2023-05-23T20:50:41.602Z,19.42
2023-05-23T20:53:10.091Z,19.45
2023-05-23T20:55:40.149Z,19.52
2023-05-23T20:58:08.823Z,19.53
2023-05-23T21:00:37.329Z,19.45
2023-05-23T21:03:07.310Z,19.46
2023-05-23T21:05:35.984Z,19.43
2023-05-23T21:08:04.462Z,19.41
2023-05-23T21:10:33.005Z,19.34
2023-05-23T21:13:02.562Z,19.28
2023-05-23T21:15:30.960Z,19.22
2023-05-23T21:17:59.165Z,19.19
2023-05-23T21:20:29.177Z,19.16
2023-05-23T21:23:07.723Z,19.17
2023-05-23T21:25:36.162Z,19.16
2023-05-23T21:28:05.690Z,19.13
2023-05-23T21:30:34.217Z,19.10
2023-05-23T21:33:02.531Z,19.00
2023-05-23T21:35:31.096Z,18.88
2023-05-23T21:37:59.208Z,18.85
2023-05-23T21:40:27.810Z,18.85
2023-05-23T21:42:55.981Z,18.85
2023-05-23T21:45:27.103Z,18.83
2023-05-23T21:47:55.641Z,18.77
2023-05-23T21:50:24.155Z,18.71
2023-05-23T21:52:52.272Z,18.72
2023-05-23T21:55:20.719Z,18.72
2023-05-23T21:57:48.843Z,18.71
2023-05-23T22:00:19.822Z,18.63
2023-05-23T22:02:49.482Z,18.69
2023-05-23T22:05:18.200Z,18.71
2023-05-23T22:07:46.539Z,18.66
2023-05-23T22:10:14.956Z,18.69
2023-05-23T22:12:43.179Z,18.72
2023-05-23T22:15:13.518Z,18.66
2023-05-23T22:17:43.693Z,18.52
2023-05-23T22:20:16.713Z,18.50
2023-05-23T22:22:44.942Z,18.35
2023-05-23T22:25:13.295Z,18.31
2023-05-23T22:27:41.569Z,18.22
2023-05-23T22:30:10.669Z,18.11
2023-05-23T22:32:38.822Z,18.17
2023-05-23T22:35:07.901Z,18.18
2023-05-23T22:37:37.382Z,18.08
2023-05-23T22:40:06.788Z,18.00
2023-05-23T22:42:34.964Z,17.94
2023-05-23T22:45:03.531Z,18.01
2023-05-23T22:47:32.563Z,18.03
2023-05-23T22:50:00.907Z,18.04
2023-05-23T22:52:31.236Z,18.02
2023-05-23T22:55:01.054Z,18.05
2023-05-23T22:57:29.240Z,18.07
2023-05-23T22:59:57.667Z,18.04
2023-05-23T23:02:25.880Z,18.01
2023-05-23T23:04:54.389Z,17.95
2023-05-23T23:07:22.502Z,17.93
2023-05-23T23:09:50.958Z,17.95
2023-05-23T23:12:20.461Z,17.97
2023-05-23T23:14:49.087Z,17.94
2023-05-23T23:17:17.291Z,17.87
2023-05-23T23:19:46.907Z,17.88
2023-05-23T23:22:15.089Z,17.88
2023-05-23T23:24:43.665Z,17.81
2023-05-23T23:27:11.825Z,17.92
2023-05-23T23:29:41.586Z,17.87
2023-05-23T23:32:09.532Z,17.89
2023-05-23T23:34:37.984Z,17.88
2023-05-23T23:37:06.315Z,17.81
2023-05-23T23:39:34.727Z,17.88
2023-05-23T23:42:02.937Z,17.91
2023-05-23T23:44:31.565Z,17.73
2023-05-23T23:47:01.194Z,17.67
2023-05-23T23:49:29.670Z,17.52
2023-05-23T23:51:57.809Z,17.37
2023-05-23T23:54:26.478Z,17.19
2023-05-23T23:56:54.754Z,17.29
2023-05-23T23:59:23.229Z,17.32
